Time;durP1;ratioP1;P1;durP2;ratioP2;P2;SDS_P1;SDS_P2;PMS_P1;PMS_P2;Temp;Humidity;BMP_temperature;BMP_pressure;BME280_temperature;BME280_humidity;BME280_pressure;Samples;Min_cycle;Max_cycle;Signal;HPM_P1;HPM_P2
2022/08/15 00:01:47;;;;;;;;;;;;;;;27.70;71.37;96923.31;5005223;28;19968;-86
2022/08/15 00:04:14;;;;;;;;;;;;;;;27.55;72.49;96905.34;4996795;28;20039;-87
2022/08/15 00:06:42;;;;;;;;;;;;;;;27.59;72.23;96904.16;4994470;28;19988;-88
2022/08/15 00:09:11;;;;;;;;;;;;;;;27.58;72.19;96915.53;4995465;28;19926;-89
2022/08/15 00:11:40;;;;;;;;;;;;;;;27.52;72.96;96912.41;5022315;28;19992;-89
2022/08/15 00:14:08;;;;;;;;;;;;;;;27.49;73.84;96915.16;5009633;28;19957;-88
2022/08/15 00:16:36;;;;;;;;;;;;;;;27.56;73.78;96907.69;5009002;28;20440;-89
2022/08/15 00:19:06;;;;;;;;;;;;;;;27.54;73.90;96892.81;4995187;28;19933;-88
2022/08/15 00:21:33;;;;;;;;;;;;;;;27.50;73.76;96898.31;4987359;28;19941;-88
2022/08/15 00:23:59;;;;;;;;;;;;;;;27.49;74.50;96904.19;5000685;28;20510;-89
2022/08/15 00:26:28;;;;;;;;;;;;;;;27.39;75.49;96907.75;4996818;28;19926;-88
2022/08/15 00:28:54;;;;;;;;;;;;;;;27.41;75.80;96908.91;5006099;28;19925;-88
2022/08/15 00:31:21;;;;;;;;;;;;;;;27.42;75.81;96907.69;5000582;28;19957;-88
2022/08/15 00:33:47;;;;;;;;;;;;;;;27.49;75.54;96913.19;4996734;28;19929;-88
2022/08/15 00:36:15;;;;;;;;;;;;;;;27.43;76.31;96911.25;4987634;28;19929;-88
2022/08/15 00:38:42;;;;;;;;;;;;;;;27.35;76.47;96907.75;4995258;28;19988;-88
2022/08/15 00:43:57;;;;;;;;;;;;;;;27.33;77.01;96915.56;4995648;28;20500;-89
2022/08/15 00:46:25;;;;;;;;;;;;;;;27.35;76.99;96918.72;4996881;28;19984;-90
2022/08/15 00:48:52;;;;;;;;;;;;;;;27.38;76.77;96917.94;4997012;28;19929;-87
2022/08/15 00:51:22;;;;;;;;;;;;;;;27.35;77.28;96918.72;4995460;28;20064;-88
2022/08/15 00:53:50;;;;;;;;;;;;;;;27.34;77.70;96917.94;4991537;28;20011;-89
2022/08/15 00:56:17;;;;;;;;;;;;;;;27.40;77.15;96917.50;4989099;28;19936;-89
2022/08/15 00:58:44;;;;;;;;;;;;;;;27.44;76.74;96908.13;5000008;28;20028;-89
2022/08/15 01:01:15;;;;;;;;;;;;;;;27.36;76.84;96923.78;4991499;28;19929;-89
2022/08/15 01:03:44;;;;;;;;;;;;;;;27.26;78.02;96913.66;4995649;28;19969;-89
2022/08/15 01:06:11;;;;;;;;;;;;;;;27.28;78.28;96914.03;4992755;28;19929;-88
2022/08/15 01:08:40;;;;;;;;;;;;;;;27.31;78.34;96906.97;4999060;28;20396;-87
2022/08/15 01:11:10;;;;;;;;;;;;;;;27.16;79.45;96913.66;4999593;28;19937;-87
2022/08/15 01:13:36;;;;;;;;;;;;;;;27.20;79.28;96911.72;5003525;28;19976;-87
2022/08/15 01:16:03;;;;;;;;;;;;;;;27.14;80.32;96905.81;5005209;28;19936;-88
2022/08/15 01:18:31;;;;;;;;;;;;;;;27.10;80.67;96912.50;5002379;28;19976;-88
2022/08/15 01:20:59;;;;;;;;;;;;;;;27.11;80.76;96908.59;5005568;28;19929;-90
2022/08/15 01:23:35;;;;;;;;;;;;;;;27.11;80.79;96914.09;5003127;28;19925;-89
2022/08/15 01:26:06;;;;;;;;;;;;;;;27.08;80.86;96920.34;5004675;28;19936;-88
2022/08/15 01:28:34;;;;;;;;;;;;;;;27.08;81.08;96912.13;5004641;28;19933;-89
2022/08/15 01:31:02;;;;;;;;;;;;;;;27.06;81.11;96911.72;5003201;28;20300;-88
2022/08/15 01:33:31;;;;;;;;;;;;;;;27.11;80.87;96908.59;5003834;28;19925;-89
2022/08/15 01:35:59;;;;;;;;;;;;;;;27.06;81.42;96907.03;5011907;28;19929;-88
2022/08/15 01:38:27;;;;;;;;;;;;;;;27.08;81.13;96906.66;5002776;28;19929;-88
2022/08/15 01:40:59;;;;;;;;;;;;;;;27.08;81.43;96903.91;4982913;28;19988;-87
2022/08/15 01:43:30;;;;;;;;;;;;;;;27.01;81.56;96898.44;4990539;28;19952;-87
2022/08/15 01:45:58;;;;;;;;;;;;;;;27.01;81.63;96898.44;4993663;28;19937;-88
2022/08/15 01:48:27;;;;;;;;;;;;;;;27.10;80.91;96890.59;4986401;28;20647;-87
2022/08/15 01:50:57;;;;;;;;;;;;;;;26.71;83.15;96887.84;4986826;28;20013;-88
2022/08/15 01:53:25;;;;;;;;;;;;;;;26.58;83.51;96884.75;4989361;28;19929;-88
2022/08/15 01:55:53;;;;;;;;;;;;;;;26.67;83.51;96890.63;4998596;28;19976;-88
2022/08/15 01:58:20;;;;;;;;;;;;;;;26.79;82.68;96886.69;5019347;28;19975;-88
2022/08/15 02:00:53;;;;;;;;;;;;;;;26.89;81.86;96890.63;5015920;28;19945;-88
2022/08/15 02:03:19;;;;;;;;;;;;;;;26.78;82.37;96885.13;4998649;28;19926;-89
2022/08/15 02:05:46;;;;;;;;;;;;;;;26.81;82.29;96885.16;5003703;28;19987;-88
2022/08/15 02:08:12;;;;;;;;;;;;;;;26.76;82.45;96895.69;5000380;28;19973;-87
2022/08/15 02:10:43;;;;;;;;;;;;;;;26.81;82.58;96887.91;4999122;28;19967;-89
2022/08/15 02:13:10;;;;;;;;;;;;;;;26.92;81.68;96885.16;5007457;28;19925;-88
2022/08/15 02:15:36;;;;;;;;;;;;;;;26.93;81.29;96875.72;4991419;28;19929;-88
2022/08/15 02:18:04;;;;;;;;;;;;;;;26.90;81.36;96882.00;4983631;28;20404;-87
2022/08/15 02:20:31;;;;;;;;;;;;;;;26.84;81.43;96880.84;4994917;28;19926;-88
2022/08/15 02:22:57;;;;;;;;;;;;;;;26.83;81.48;96885.53;5001747;28;20778;-88
2022/08/15 02:25:24;;;;;;;;;;;;;;;26.82;81.56;96874.97;5005775;28;19929;-88
2022/08/15 02:27:51;;;;;;;;;;;;;;;26.38;84.73;96871.84;4999577;28;19949;-87
2022/08/15 02:30:18;;;;;;;;;;;;;;;26.46;84.07;96865.97;5003896;28;20028;-88
2022/08/15 02:32:45;;;;;;;;;;;;;;;26.46;84.27;96874.19;4992945;28;19934;-89
2022/08/15 02:35:15;;;;;;;;;;;;;;;26.18;85.94;96863.25;5001057;28;19984;-87
2022/08/15 02:37:42;;;;;;;;;;;;;;;26.33;84.85;96864.81;5002847;28;19925;-88
2022/08/15 02:40:09;;;;;;;;;;;;;;;26.45;84.17;96871.84;4990487;28;20017;-86
2022/08/15 02:42:36;;;;;;;;;;;;;;;26.51;83.75;96871.06;4984500;28;19988;-88
2022/08/15 02:45:03;;;;;;;;;;;;;;;26.50;84.24;96868.72;4995951;28;19933;-89
2022/08/15 02:47:30;;;;;;;;;;;;;;;26.61;83.35;96872.25;5000458;28;19936;-89
2022/08/15 02:49:57;;;;;;;;;;;;;;;26.64;83.16;96869.50;4999874;28;20043;-88
2022/08/15 02:52:24;;;;;;;;;;;;;;;26.61;83.33;96881.25;5001493;28;20395;-89
2022/08/15 02:54:51;;;;;;;;;;;;;;;26.63;83.11;96867.94;5003520;28;19929;-86
2022/08/15 02:57:18;;;;;;;;;;;;;;;26.62;83.27;96869.09;5003487;28;19926;-91
2022/08/15 02:59:46;;;;;;;;;;;;;;;26.59;83.39;96872.63;4998128;28;20027;-89
2022/08/15 03:02:12;;;;;;;;;;;;;;;26.54;83.74;96875.75;4998382;28;20016;-88
2022/08/15 03:04:39;;;;;;;;;;;;;;;26.55;83.69;96871.84;5004419;28;20365;-88
2022/08/15 03:07:05;;;;;;;;;;;;;;;26.48;84.40;96863.63;4995513;28;20018;-89
2022/08/15 03:09:33;;;;;;;;;;;;;;;26.48;84.36;96865.59;4995583;28;20046;-88
2022/08/15 03:11:59;;;;;;;;;;;;;;;26.52;84.32;96869.88;5001723;28;19926;-89
2022/08/15 03:14:26;;;;;;;;;;;;;;;26.57;83.87;96863.25;4988933;28;19997;-88
2022/08/15 03:16:53;;;;;;;;;;;;;;;26.37;85.14;96859.34;4984034;28;19926;-88
2022/08/15 03:19:22;;;;;;;;;;;;;;;25.97;88.39;96868.63;4989531;28;19969;-88
2022/08/15 03:21:49;;;;;;;;;;;;;;;26.08;87.49;96869.44;4982676;28;20026;-88
2022/08/15 03:24:16;;;;;;;;;;;;;;;26.19;86.72;96865.56;5003125;28;20281;-89
2022/08/15 03:26:46;;;;;;;;;;;;;;;26.21;86.49;96865.19;4996413;28;20016;-89
2022/08/15 03:29:15;;;;;;;;;;;;;;;26.35;85.94;96867.16;4997562;28;20024;-87
2022/08/15 03:31:41;;;;;;;;;;;;;;;26.13;87.54;96866.31;4978266;28;19933;-89
2022/08/15 03:34:07;;;;;;;;;;;;;;;26.15;86.69;96861.25;5004800;28;19973;-88
2022/08/15 03:36:34;;;;;;;;;;;;;;;26.20;86.88;96869.09;4998614;28;19937;-88
2022/08/15 03:39:02;;;;;;;;;;;;;;;26.27;86.45;96863.63;5006109;28;20068;-88
2022/08/15 03:41:28;;;;;;;;;;;;;;;26.00;89.20;96862.38;4990237;28;19936;-88
2022/08/15 03:43:56;;;;;;;;;;;;;;;26.07;88.34;96867.88;5003178;28;20609;-89
2022/08/15 03:46:23;;;;;;;;;;;;;;;26.15;87.43;96869.47;4991289;28;19925;-89
2022/08/15 03:48:51;;;;;;;;;;;;;;;26.22;87.25;96864.78;4986673;28;20017;-89
2022/08/15 03:51:19;;;;;;;;;;;;;;;26.22;87.46;96869.47;4999742;28;19929;-87
2022/08/15 03:53:47;;;;;;;;;;;;;;;26.21;87.12;96874.16;4998604;28;19977;-89
2022/08/15 03:56:15;;;;;;;;;;;;;;;26.24;87.25;96878.09;4987145;28;19925;-88
2022/08/15 03:58:42;;;;;;;;;;;;;;;26.25;86.87;96871.44;4998256;28;19929;-89
2022/08/15 04:01:11;;;;;;;;;;;;;;;26.22;86.48;96866.75;4996655;28;19937;-88
2022/08/15 04:03:38;;;;;;;;;;;;;;;26.22;87.17;96864.00;5007857;28;19996;-88
2022/08/15 04:06:06;;;;;;;;;;;;;;;26.15;86.62;96874.94;5012191;28;19937;-88
2022/08/15 04:08:33;;;;;;;;;;;;;;;26.23;86.73;96882.78;5002610;28;19926;-88
2022/08/15 04:11:01;;;;;;;;;;;;;;;26.25;87.28;96885.13;4991635;28;19929;-87
2022/08/15 04:13:27;;;;;;;;;;;;;;;26.14;89.34;96881.56;5000269;28;19972;-87
2022/08/15 04:15:55;;;;;;;;;;;;;;;25.61;92.66;96887.69;4995386;28;19933;-88
2022/08/15 04:18:24;;;;;;;;;;;;;;;24.97;99.07;96894.00;5000738;28;20054;-89
2022/08/15 04:20:50;;;;;;;;;;;;;;;25.00;97.98;96893.22;4991850;28;20028;-88
2022/08/15 04:23:17;;;;;;;;;;;;;;;24.67;100.00;96892.19;4998065;28;19973;-88
2022/08/15 04:25:44;;;;;;;;;;;;;;;24.21;100.00;96893.75;5002519;28;19968;-89
2022/08/15 04:28:13;;;;;;;;;;;;;;;24.87;100.00;96889.25;4989758;28;20020;-89
2022/08/15 04:30:41;;;;;;;;;;;;;;;24.49;100.00;96891.28;4995791;28;19968;-89
2022/08/15 04:33:08;;;;;;;;;;;;;;;24.86;100.00;96887.66;4973231;28;20286;-89
2022/08/15 04:35:36;;;;;;;;;;;;;;;24.30;100.00;96901.63;4991999;28;19936;-88
2022/08/15 04:38:03;;;;;;;;;;;;;;;24.32;100.00;96907.50;4998797;28;19933;-90
2022/08/15 04:40:30;;;;;;;;;;;;;;;24.23;100.00;96901.59;4993729;28;20020;-88
2022/08/15 04:42:58;;;;;;;;;;;;;;;24.17;100.00;96915.53;4991646;28;20045;-88
2022/08/15 04:45:24;;;;;;;;;;;;;;;23.31;100.00;96917.59;4985260;28;19925;-90
2022/08/15 04:47:51;;;;;;;;;;;;;;;23.18;100.00;96918.22;4981586;28;20025;-88
2022/08/15 04:50:18;;;;;;;;;;;;;;;23.07;100.00;96916.13;5005028;28;19932;-88
2022/08/15 04:52:46;;;;;;;;;;;;;;;23.07;100.00;96920.78;4991443;28;20048;-89
2022/08/15 04:55:14;;;;;;;;;;;;;;;23.09;100.00;96927.44;4980612;28;19926;-87
2022/08/15 04:57:41;;;;;;;;;;;;;;;23.08;100.00;96922.38;4992141;28;19932;-89
2022/08/15 05:00:08;;;;;;;;;;;;;;;23.06;100.00;96924.66;4981702;28;20419;-88
2022/08/15 05:02:35;;;;;;;;;;;;;;;23.31;100.00;96919.53;4995245;28;19925;-88
2022/08/15 05:05:01;;;;;;;;;;;;;;;23.69;100.00;96927.47;5000676;28;20004;-88
2022/08/15 05:07:28;;;;;;;;;;;;;;;23.49;100.00;96934.22;5000001;28;20025;-87
2022/08/15 05:09:56;;;;;;;;;;;;;;;23.17;100.00;96941.94;4992239;28;20602;-88
2022/08/15 05:12:23;;;;;;;;;;;;;;;23.18;100.00;96938.06;5009695;28;19925;-89
2022/08/15 05:14:49;;;;;;;;;;;;;;;23.03;100.00;96928.13;4993748;28;19930;-89
2022/08/15 05:17:16;;;;;;;;;;;;;;;23.37;100.00;96935.19;5010030;28;19961;-89
2022/08/15 05:19:42;;;;;;;;;;;;;;;23.48;100.00;96941.63;4995215;28;19957;-87
2022/08/15 05:22:09;;;;;;;;;;;;;;;24.08;100.00;96931.41;4995155;28;20292;-87
2022/08/15 05:24:35;;;;;;;;;;;;;;;24.54;100.00;96942.78;5005066;28;20008;-88
2022/08/15 05:27:04;;;;;;;;;;;;;;;24.48;100.00;96944.28;5002784;28;20032;-87
2022/08/15 05:29:31;;;;;;;;;;;;;;;24.32;100.00;96940.25;4999820;28;19961;-88
2022/08/15 05:31:58;;;;;;;;;;;;;;;24.63;100.00;96939.75;5003092;28;19926;-88
2022/08/15 05:34:25;;;;;;;;;;;;;;;24.55;100.00;96951.75;5005220;28;19971;-88
2022/08/15 05:36:52;;;;;;;;;;;;;;;24.29;100.00;96949.97;5022186;28;19925;-87
2022/08/15 05:39:21;;;;;;;;;;;;;;;24.04;100.00;96948.91;5000429;28;19960;-89
2022/08/15 05:41:51;;;;;;;;;;;;;;;24.02;100.00;96948.47;5001922;28;19930;-92
2022/08/15 05:44:23;;;;;;;;;;;;;;;23.76;100.00;96959.47;5006027;28;20557;-89
2022/08/15 05:46:53;;;;;;;;;;;;;;;24.09;100.00;96954.00;5020527;28;19969;-87
2022/08/15 05:49:24;;;;;;;;;;;;;;;24.64;100.00;96965.88;4990104;28;19988;-88
2022/08/15 05:51:57;;;;;;;;;;;;;;;24.86;100.00;96958.66;4999491;28;20020;-89
2022/08/15 05:54:28;;;;;;;;;;;;;;;24.78;100.00;96954.28;5003055;28;19925;-88
2022/08/15 05:56:58;;;;;;;;;;;;;;;24.69;100.00;96963.59;4993999;28;20408;-88
2022/08/15 05:59:31;;;;;;;;;;;;;;;24.85;100.00;96960.59;4995618;28;20033;-88
2022/08/15 06:02:02;;;;;;;;;;;;;;;25.15;100.00;96957.72;5001125;28;19925;-88
2022/08/15 06:04:33;;;;;;;;;;;;;;;25.42;98.83;96963.72;5005684;28;20036;-90
2022/08/15 06:07:04;;;;;;;;;;;;;;;25.55;98.13;96954.84;4990254;28;19981;-88
2022/08/15 06:09:34;;;;;;;;;;;;;;;24.95;100.00;96956.41;4994681;28;19926;-88
2022/08/15 06:12:03;;;;;;;;;;;;;;;24.78;100.00;96951.56;4998287;28;20024;-89
2022/08/15 06:14:32;;;;;;;;;;;;;;;24.85;100.00;96954.38;4994170;28;20009;-88
2022/08/15 06:17:01;;;;;;;;;;;;;;;25.09;100.00;96951.03;5000925;28;19965;-90
2022/08/15 06:19:31;;;;;;;;;;;;;;;25.12;100.00;96955.75;5015533;28;20539;-87
2022/08/15 06:22:04;;;;;;;;;;;;;;;25.40;99.50;96964.13;5004622;28;19929;-88
2022/08/15 06:24:32;;;;;;;;;;;;;;;25.61;97.96;96961.53;5006470;28;19925;-89
2022/08/15 06:27:05;;;;;;;;;;;;;;;25.31;100.00;96963.69;5000763;28;20036;-87
2022/08/15 06:29:44;;;;;;;;;;;;;;;24.66;100.00;96966.31;4995453;28;19964;-89
2022/08/15 06:32:12;;;;;;;;;;;;;;;24.55;100.00;96959.94;4996979;28;19929;-88
2022/08/15 06:34:41;;;;;;;;;;;;;;;24.68;100.00;96966.69;4998595;28;19972;-88
2022/08/15 06:37:12;;;;;;;;;;;;;;;24.88;100.00;96968.03;5006670;28;20760;-88
2022/08/15 06:39:42;;;;;;;;;;;;;;;25.24;100.00;96966.38;4988913;28;19969;-89
2022/08/15 06:42:14;;;;;;;;;;;;;;;25.54;97.63;96960.69;5005131;28;19987;-88
2022/08/15 06:44:42;;;;;;;;;;;;;;;25.37;97.54;96956.69;4995112;28;19926;-88
2022/08/15 06:47:09;;;;;;;;;;;;;;;25.48;96.96;96956.72;5006128;28;19976;-89
2022/08/15 06:49:38;;;;;;;;;;;;;;;25.06;100.00;96955.31;4992344;28;20024;-89
2022/08/15 06:52:05;;;;;;;;;;;;;;;24.97;100.00;96952.16;5006281;28;19926;-89
2022/08/15 06:54:32;;;;;;;;;;;;;;;25.11;100.00;96965.09;5006719;28;20012;-88
2022/08/15 06:57:02;;;;;;;;;;;;;;;25.50;97.26;96966.13;5001402;28;20388;-88
2022/08/15 06:59:35;;;;;;;;;;;;;;;25.53;96.91;96965.38;5002095;28;20016;-88
2022/08/15 07:02:11;;;;;;;;;;;;;;;25.40;99.90;96972.31;4999885;28;19939;-89
2022/08/15 07:04:44;;;;;;;;;;;;;;;24.54;100.00;96972.81;5004398;28;19933;-89
2022/08/15 07:07:14;;;;;;;;;;;;;;;24.07;100.00;96967.25;5018828;28;20107;-89
2022/08/15 07:09:44;;;;;;;;;;;;;;;24.27;100.00;96971.38;4994418;28;20425;-88
2022/08/15 07:12:15;;;;;;;;;;;;;;;24.11;100.00;96962.63;5004086;28;20235;-89
2022/08/15 07:14:48;;;;;;;;;;;;;;;23.76;100.00;96973.13;5005757;28;20010;-89
2022/08/15 07:17:21;;;;;;;;;;;;;;;24.19;100.00;96977.94;4998731;28;20020;-89
2022/08/15 07:19:47;;;;;;;;;;;;;;;24.32;100.00;96979.25;5005010;28;20008;-88
2022/08/15 07:22:14;;;;;;;;;;;;;;;24.51;100.00;96979.00;5003801;28;20034;-88
2022/08/15 07:24:49;;;;;;;;;;;;;;;24.84;100.00;96982.84;5001485;28;19972;-88
2022/08/15 07:27:16;;;;;;;;;;;;;;;24.69;100.00;96979.97;5004919;28;19950;-88
2022/08/15 07:29:44;;;;;;;;;;;;;;;24.49;100.00;96978.63;5003077;28;19937;-88
2022/08/15 07:32:13;;;;;;;;;;;;;;;24.67;100.00;96985.03;4990131;28;20754;-88
2022/08/15 07:34:52;;;;;;;;;;;;;;;24.93;99.85;96983.31;5001449;28;19929;-88
2022/08/15 07:37:20;;;;;;;;;;;;;;;25.37;96.39;96988.69;5004024;28;19973;-89
2022/08/15 07:39:46;;;;;;;;;;;;;;;25.61;93.62;96983.41;4997932;28;19949;-89
2022/08/15 07:42:15;;;;;;;;;;;;;;;25.64;92.80;96976.38;5005096;28;19991;-89
2022/08/15 07:44:50;;;;;;;;;;;;;;;25.82;90.27;96988.16;4999487;28;19989;-89
2022/08/15 07:47:20;;;;;;;;;;;;;;;25.97;87.76;96983.53;5000903;28;20057;-88
2022/08/15 07:49:56;;;;;;;;;;;;;;;25.95;85.07;96977.66;5010037;28;20016;-89
2022/08/15 07:52:24;;;;;;;;;;;;;;;25.68;86.44;96985.38;4996379;28;19925;-88
2022/08/15 07:54:53;;;;;;;;;;;;;;;25.77;87.86;96983.88;5001820;28;20344;-88
2022/08/15 07:57:20;;;;;;;;;;;;;;;25.90;86.71;96989.78;5000875;28;20032;-88
2022/08/15 08:00:05;;;;;;;;;;;;;;;25.79;83.84;96980.75;5004640;28;19929;-90
2022/08/15 08:02:36;;;;;;;;;;;;;;;26.03;83.16;96990.19;5012372;28;19961;-89
2022/08/15 08:05:04;;;;;;;;;;;;;;;26.07;83.11;96988.25;5004567;28;19980;-88
2022/08/15 08:07:32;;;;;;;;;;;;;;;26.04;82.65;96992.56;4995583;28;19972;-89
2022/08/15 08:10:02;;;;;;;;;;;;;;;25.97;82.40;96994.47;5000108;28;19957;-89
2022/08/15 08:12:34;;;;;;;;;;;;;;;25.83;81.64;96997.16;5004215;28;19996;-89
2022/08/15 08:15:08;;;;;;;;;;;;;;;25.80;80.51;97000.66;4999905;28;20024;-88
2022/08/15 08:17:41;;;;;;;;;;;;;;;25.77;79.77;97000.28;4996208;28;19925;-88
2022/08/15 08:20:15;;;;;;;;;;;;;;;25.90;78.39;97005.41;4996622;28;19936;-89
2022/08/15 08:22:47;;;;;;;;;;;;;;;25.93;77.89;97004.66;4993161;28;19972;-87
2022/08/15 08:25:17;;;;;;;;;;;;;;;25.80;77.76;96996.00;5006538;28;19936;-87
2022/08/15 08:27:49;;;;;;;;;;;;;;;25.98;77.25;97007.00;5005571;28;20020;-88
2022/08/15 08:30:17;;;;;;;;;;;;;;;26.02;76.38;97013.28;4999403;28;19925;-89
2022/08/15 08:32:49;;;;;;;;;;;;;;;26.10;76.53;97012.91;5004914;28;19935;-90
2022/08/15 08:35:23;;;;;;;;;;;;;;;26.08;76.24;97015.25;5005455;28;20004;-89
2022/08/15 08:37:54;;;;;;;;;;;;;;;25.83;76.94;97011.63;5002830;28;19929;-89
2022/08/15 08:43:26;;;;;;;;;;;;;;;26.09;76.41;97013.31;4996495;28;20501;-89
2022/08/15 08:45:58;;;;;;;;;;;;;;;25.89;77.05;97017.50;4994855;28;20521;-89
2022/08/15 08:48:32;;;;;;;;;;;;;;;25.85;77.89;97014.75;5006868;28;20008;-90
2022/08/15 08:51:04;;;;;;;;;;;;;;;25.94;76.54;97006.19;5006506;28;19929;-88
2022/08/15 08:53:33;;;;;;;;;;;;;;;25.81;77.96;97005.75;5003995;28;20403;-89
2022/08/15 08:56:00;;;;;;;;;;;;;;;25.81;77.09;97013.19;4992097;28;19945;-88
2022/08/15 08:58:30;;;;;;;;;;;;;;;26.03;76.85;97006.63;5002516;28;19960;-90
2022/08/15 09:00:57;;;;;;;;;;;;;;;26.09;76.62;97007.84;5006519;28;20699;-90
2022/08/15 09:03:27;;;;;;;;;;;;;;;25.82;76.92;97010.06;5020071;28;20025;-89
2022/08/15 09:05:54;;;;;;;;;;;;;;;25.92;78.40;97005.81;5005874;28;19926;-87
2022/08/15 09:08:25;;;;;;;;;;;;;;;25.78;79.53;97006.50;4995253;28;19925;-89
2022/08/15 09:10:54;;;;;;;;;;;;;;;25.66;83.88;97013.09;5002059;28;20389;-88
2022/08/15 09:13:37;;;;;;;;;;;;;;;25.62;86.36;97015.06;5005547;28;19969;-89
2022/08/15 09:16:09;;;;;;;;;;;;;;;25.76;85.42;97020.59;5007761;28;20183;-89
2022/08/15 09:18:38;;;;;;;;;;;;;;;25.73;85.92;97018.63;5007061;28;19936;-89
2022/08/15 09:21:05;;;;;;;;;;;;;;;25.56;85.51;97024.75;5006409;28;19972;-88
2022/08/15 09:23:35;;;;;;;;;;;;;;;25.75;85.59;97019.00;5005994;28;19936;-89
2022/08/15 09:26:06;;;;;;;;;;;;;;;26.02;84.15;97016.81;5005049;28;19977;-87
2022/08/15 09:28:34;;;;;;;;;;;;;;;25.93;83.54;97018.31;5005293;28;19925;-88
2022/08/15 09:31:04;;;;;;;;;;;;;;;25.97;83.51;97021.84;5006074;28;19971;-89
2022/08/15 09:33:56;;;;;;;;;;;;;;;25.90;81.46;97021.81;5003753;28;20393;-88
2022/08/15 09:36:37;;;;;;;;;;;;;;;25.81;84.16;97024.13;5005905;28;20016;-88
2022/08/15 09:39:16;;;;;;;;;;;;;;;25.94;83.20;97017.13;5007947;28;19929;-88
2022/08/15 09:41:51;;;;;;;;;;;;;;;25.88;83.23;97018.66;5003838;28;20284;-89
2022/08/15 09:44:29;;;;;;;;;;;;;;;25.88;83.33;97018.66;4999776;28;20654;-89
2022/08/15 09:47:10;;;;;;;;;;;;;;;25.88;83.10;97007.72;5009626;28;19926;-88
2022/08/15 09:49:48;;;;;;;;;;;;;;;25.86;82.01;97010.06;4997093;28;19937;-88
2022/08/15 09:52:21;;;;;;;;;;;;;;;26.06;82.21;97009.38;4997064;28;20428;-88
2022/08/15 09:54:52;;;;;;;;;;;;;;;26.02;81.27;97008.59;5007753;28;19933;-90
2022/08/15 09:57:36;;;;;;;;;;;;;;;26.12;81.08;97007.81;4998698;28;20442;-88
2022/08/15 10:00:05;;;;;;;;;;;;;;;26.31;80.06;97001.25;4997712;28;19941;-87
2022/08/15 10:02:33;;;;;;;;;;;;;;;26.34;79.49;96999.72;5014824;28;19925;-89
2022/08/15 10:05:12;;;;;;;;;;;;;;;26.14;80.66;97000.03;5007587;28;20049;-89
2022/08/15 10:07:45;;;;;;;;;;;;;;;26.49;79.09;96991.13;4999136;28;19929;-89
2022/08/15 10:10:14;;;;;;;;;;;;;;;26.41;79.23;96995.03;4996905;28;19933;-87
2022/08/15 10:13:01;;;;;;;;;;;;;;;26.60;77.63;96988.41;4999557;28;19969;-88
2022/08/15 10:15:35;;;;;;;;;;;;;;;26.65;77.69;96988.03;4995362;28;19926;-87
2022/08/15 10:18:08;;;;;;;;;;;;;;;26.77;75.80;96996.66;4996526;28;19926;-88
2022/08/15 10:20:58;;;;;;;;;;;;;;;26.77;75.60;96993.91;4995525;28;19936;-89
2022/08/15 10:23:31;;;;;;;;;;;;;;;26.82;74.47;96981.81;4998647;28;20359;-89
2022/08/15 10:26:20;;;;;;;;;;;;;;;27.01;74.29;96983.38;5000397;28;19930;-89
2022/08/15 10:28:58;;;;;;;;;;;;;;;27.19;72.78;96975.91;4996207;28;20488;-89
2022/08/15 10:31:27;;;;;;;;;;;;;;;27.21;72.61;96968.88;4997910;28;20420;-88
2022/08/15 10:33:58;;;;;;;;;;;;;;;27.26;71.29;96965.75;5000158;28;19961;-90
2022/08/15 10:36:26;;;;;;;;;;;;;;;27.38;70.85;96956.31;5017459;28;19972;-88
2022/08/15 10:39:00;;;;;;;;;;;;;;;27.50;69.16;96955.91;5007730;28;19926;-89
2022/08/15 10:41:32;;;;;;;;;;;;;;;27.22;70.96;96958.69;4997550;28;20029;-89
2022/08/15 10:44:03;;;;;;;;;;;;;;;27.53;70.20;96957.06;4998811;28;20388;-89
2022/08/15 10:46:41;;;;;;;;;;;;;;;27.48;66.90;96950.03;4998314;28;19930;-88
2022/08/15 10:49:14;;;;;;;;;;;;;;;27.49;69.70;96959.03;5007052;28;19929;-89
2022/08/15 10:51:53;;;;;;;;;;;;;;;27.67;67.40;96949.56;5004497;28;20016;-89
2022/08/15 10:54:28;;;;;;;;;;;;;;;27.81;63.88;96946.00;4997388;28;20406;-89
2022/08/15 10:56:56;;;;;;;;;;;;;;;27.75;66.07;96953.88;5002191;28;19930;-88
2022/08/15 10:59:24;;;;;;;;;;;;;;;27.86;65.65;96949.09;5002223;28;20020;-89
2022/08/15 11:01:51;;;;;;;;;;;;;;;28.04;63.11;96951.00;5007963;28;20009;-89
2022/08/15 11:04:25;;;;;;;;;;;;;;;28.00;63.80;96950.22;5004028;28;19972;-91
2022/08/15 11:06:52;;;;;;;;;;;;;;;28.15;60.31;96949.00;5010262;28;19926;-88
2022/08/15 11:09:20;;;;;;;;;;;;;;;27.91;62.66;96950.66;5003761;28;19965;-88
2022/08/15 11:11:52;;;;;;;;;;;;;;;27.93;62.39;96953.78;5005382;28;19971;-87
2022/08/15 11:14:21;;;;;;;;;;;;;;;27.87;61.38;96950.69;4988088;28;19983;-89
2022/08/15 11:16:51;;;;;;;;;;;;;;;27.92;62.52;96946.72;4991501;28;19925;-89
2022/08/15 11:19:19;;;;;;;;;;;;;;;27.84;61.39;96956.97;5000953;28;19949;-90
2022/08/15 11:21:49;;;;;;;;;;;;;;;27.88;62.67;96946.72;5001352;28;19984;-88
2022/08/15 11:24:24;;;;;;;;;;;;;;;27.99;62.20;96948.66;4999103;28;20304;-87
2022/08/15 11:26:51;;;;;;;;;;;;;;;28.00;61.98;96948.28;5004006;28;19940;-88
2022/08/15 11:29:19;;;;;;;;;;;;;;;27.99;61.70;96938.47;4995441;28;20819;-88
2022/08/15 11:31:48;;;;;;;;;;;;;;;28.25;61.45;96937.19;4998668;28;19978;-86
2022/08/15 11:34:18;;;;;;;;;;;;;;;28.23;60.94;96934.03;5002987;28;19991;-88
2022/08/15 11:36:45;;;;;;;;;;;;;;;28.29;60.28;96937.91;5007328;28;19926;-88
2022/08/15 11:39:13;;;;;;;;;;;;;;;28.16;59.25;96937.59;5005874;28;20491;-86
2022/08/15 11:41:40;;;;;;;;;;;;;;;28.17;59.15;96941.91;4992758;28;19933;-88
2022/08/15 11:44:09;;;;;;;;;;;;;;;28.18;58.70;96934.47;4996781;28;19926;-87
2022/08/15 11:46:35;;;;;;;;;;;;;;;28.28;58.17;96928.94;5000790;28;19925;-88
2022/08/15 11:49:07;;;;;;;;;;;;;;;28.40;57.75;96935.91;4999173;28;20008;-86
2022/08/15 11:51:35;;;;;;;;;;;;;;;28.38;58.32;96927.25;5001817;28;20012;-86
2022/08/15 11:54:04;;;;;;;;;;;;;;;28.48;56.90;96928.38;5002196;28;20041;-85
2022/08/15 11:56:43;;;;;;;;;;;;;;;28.36;57.47;96930.44;5017837;28;20321;-86
2022/08/15 11:59:12;;;;;;;;;;;;;;;28.31;58.14;96919.88;5004124;28;20308;-84
2022/08/15 12:01:38;;;;;;;;;;;;;;;28.29;57.91;96918.69;5001920;28;19925;-84
2022/08/15 12:04:07;;;;;;;;;;;;;;;28.36;56.88;96926.91;5003321;28;20012;-86
2022/08/15 12:06:36;;;;;;;;;;;;;;;28.48;55.54;96920.13;5002103;28;19926;-85
2022/08/15 12:09:10;;;;;;;;;;;;;;;28.46;54.43;96919.78;4999853;28;19933;-86
2022/08/15 12:11:41;;;;;;;;;;;;;;;28.49;53.90;96902.47;4994555;28;19945;-84
2022/08/15 12:14:14;;;;;;;;;;;;;;;28.45;53.69;96907.22;5000827;28;20307;-85
2022/08/15 12:16:44;;;;;;;;;;;;;;;28.68;51.54;96908.25;5019320;28;20544;-86
2022/08/15 12:19:29;;;;;;;;;;;;;;;28.70;50.00;96908.63;5007092;28;19929;-84
2022/08/15 12:21:57;;;;;;;;;;;;;;;28.56;52.13;96902.44;4996000;28;19945;-84
2022/08/15 12:24:24;;;;;;;;;;;;;;;28.48;51.84;96909.94;5002264;28;19929;-82
2022/08/15 12:26:50;;;;;;;;;;;;;;;28.47;51.78;96911.13;5004040;28;20032;-87
2022/08/15 12:29:18;;;;;;;;;;;;;;;28.40;52.20;96900.19;5003350;28;19991;-85
2022/08/15 12:31:45;;;;;;;;;;;;;;;28.59;50.98;96909.88;5002364;28;19933;-85
2022/08/15 12:34:13;;;;;;;;;;;;;;;28.41;51.51;96905.28;4999448;28;19975;-83
2022/08/15 12:36:43;;;;;;;;;;;;;;;28.34;48.02;96897.09;5007174;28;20012;-85
2022/08/15 12:39:11;;;;;;;;;;;;;;;28.16;50.25;96901.16;5000887;28;20012;-84
2022/08/15 12:41:39;;;;;;;;;;;;;;;28.36;48.90;96893.94;5000399;28;19953;-84
2022/08/15 12:44:07;;;;;;;;;;;;;;;28.30;49.05;96896.34;5000084;28;20326;-84
2022/08/15 12:46:34;;;;;;;;;;;;;;;28.32;49.66;96893.19;5003166;28;19972;-85
2022/08/15 12:49:01;;;;;;;;;;;;;;;28.42;48.15;96886.84;5004070;28;19965;-85
2022/08/15 12:51:27;;;;;;;;;;;;;;;28.32;49.75;96895.94;5003320;28;19937;-85
2022/08/15 12:53:55;;;;;;;;;;;;;;;28.38;49.79;96891.56;4996616;28;19933;-84
2022/08/15 12:56:22;;;;;;;;;;;;;;;28.45;51.01;96891.53;4993243;28;19934;-85
2022/08/15 12:58:50;;;;;;;;;;;;;;;28.34;50.86;96882.59;4997331;28;19938;-84
2022/08/15 13:01:17;;;;;;;;;;;;;;;28.46;51.47;96884.06;4991475;28;20016;-84
2022/08/15 13:03:44;;;;;;;;;;;;;;;28.12;52.07;96884.72;4995423;28;20333;-84